OYYOR EKCH-EKCH
Flight info
| Callsign | OYYOR |
|---|---|
| Flight time | 0h 4m |
| Altitude | 1500 |
| Route | TRAFFIC CIRCUITS |
| Aircraft | C172/L-SFG/C |
Departure
| Time | 2026-04-24 12:41 |
|---|---|
| Airport | Copenhagen Kastrup Airport (EKCH) |
Arrival
| Time | 2026-04-24 12:45 |
|---|---|
| Airport | Copenhagen Kastrup Airport (EKCH) |
| Time | Latitude | Longitude | Altitude | Speed | Heading |
|---|---|---|---|---|---|
| 2026-04-24 12:30 | 55.61258 | 12.65711 | 16 ft | 0 kts | 69° |
| 2026-04-24 12:34 | 55.61261 | 12.65721 | 16 ft | 2 kts | 58° |
| 2026-04-24 12:34 | 55.61279 | 12.65761 | 16 ft | 5 kts | 32° |
| 2026-04-24 12:34 | 55.61326 | 12.65780 | 15 ft | 7 kts | 11° |
| 2026-04-24 12:35 | 55.61362 | 12.65852 | 15 ft | 9 kts | 78° |
| 2026-04-24 12:35 | 55.61369 | 12.65992 | 13 ft | 12 kts | 95° |
| 2026-04-24 12:35 | 55.61327 | 12.66135 | 13 ft | 15 kts | 140° |
| 2026-04-24 12:35 | 55.61227 | 12.66218 | 13 ft | 17 kts | 172° |
| 2026-04-24 12:36 | 55.61104 | 12.66244 | 13 ft | 18 kts | 176° |
| 2026-04-24 12:36 | 55.60994 | 12.66242 | 13 ft | 15 kts | 227° |
| 2026-04-24 12:36 | 55.60997 | 12.66059 | 14 ft | 14 kts | 270° |
| 2026-04-24 12:36 | 55.61000 | 12.65879 | 16 ft | 14 kts | 269° |
| 2026-04-24 12:37 | 55.61003 | 12.65696 | 18 ft | 14 kts | 273° |
| 2026-04-24 12:37 | 55.61005 | 12.65513 | 20 ft | 15 kts | 271° |
| 2026-04-24 12:37 | 55.61009 | 12.65320 | 21 ft | 16 kts | 271° |
| 2026-04-24 12:37 | 55.61013 | 12.65116 | 21 ft | 17 kts | 271° |
| 2026-04-24 12:38 | 55.61017 | 12.64900 | 21 ft | 17 kts | 274° |
| 2026-04-24 12:38 | 55.61049 | 12.64782 | 20 ft | 0 kts | 345° |
| 2026-04-24 12:39 | 55.61050 | 12.64782 | 20 ft | 1 kts | 345° |
| 2026-04-24 12:40 | 55.61108 | 12.64763 | 20 ft | 16 kts | 352° |
| 2026-04-24 12:40 | 55.61233 | 12.64735 | 19 ft | 17 kts | 17° |
| 2026-04-24 12:40 | 55.61352 | 12.64901 | 19 ft | 29 kts | 41° |
| 2026-04-24 12:40 | 55.61615 | 12.65328 | 22 ft | 67 kts | 34° |
| 2026-04-24 12:41 | 55.61933 | 12.65825 | 208 ft | 62 kts | 29° |
| 2026-04-24 12:41 | 55.62263 | 12.66252 | 399 ft | 56 kts | 21° |
| 2026-04-24 12:41 | 55.62605 | 12.66177 | 532 ft | 60 kts | 309° |
| 2026-04-24 12:41 | 55.62847 | 12.65523 | 647 ft | 69 kts | 303° |
| 2026-04-24 12:42 | 55.63062 | 12.64702 | 728 ft | 78 kts | 303° |
| 2026-04-24 12:42 | 55.63300 | 12.63854 | 879 ft | 79 kts | 288° |
| 2026-04-24 12:42 | 55.63135 | 12.62859 | 980 ft | 96 kts | 234° |
| 2026-04-24 12:42 | 55.62564 | 12.62121 | 1020 ft | 108 kts | 218° |
| 2026-04-24 12:43 | 55.61908 | 12.61386 | 1015 ft | 117 kts | 218° |
| 2026-04-24 12:43 | 55.61208 | 12.60584 | 984 ft | 120 kts | 217° |
| 2026-04-24 12:43 | 55.60536 | 12.59794 | 942 ft | 111 kts | 221° |
| 2026-04-24 12:43 | 55.59930 | 12.59032 | 904 ft | 102 kts | 224° |
| 2026-04-24 12:44 | 55.59394 | 12.58238 | 838 ft | 94 kts | 227° |
| 2026-04-24 12:44 | 55.58837 | 12.57627 | 734 ft | 96 kts | 186° |
| 2026-04-24 12:44 | 55.58434 | 12.58338 | 572 ft | 86 kts | 75° |
| 2026-04-24 12:44 | 55.58558 | 12.59286 | 485 ft | 71 kts | 57° |
| 2026-04-24 12:45 | 55.58868 | 12.59892 | 327 ft | 62 kts | 30° |
| 2026-04-24 12:45 | 55.59193 | 12.60358 | 168 ft | 60 kts | 32° |
| 2026-04-24 12:45 | 55.59506 | 12.60802 | 41 ft | 53 kts | 31° |
| 2026-04-24 12:45 | 55.59758 | 12.61167 | 14 ft | 43 kts | 40° |
| 2026-04-24 12:46 | 55.60050 | 12.61644 | 37 ft | 68 kts | 36° |
| 2026-04-24 12:46 | 55.60388 | 12.62208 | 219 ft | 64 kts | 32° |
| 2026-04-24 12:46 | 55.60725 | 12.62726 | 379 ft | 64 kts | 31° |
| 2026-04-24 12:46 | 55.61046 | 12.63259 | 532 ft | 62 kts | 16° |
| 2026-04-24 12:47 | 55.61429 | 12.63015 | 641 ft | 66 kts | 328° |
| 2026-04-24 12:47 | 55.61807 | 12.62544 | 754 ft | 72 kts | 325° |
| 2026-04-24 12:47 | 55.62213 | 12.62003 | 897 ft | 76 kts | 326° |
| 2026-04-24 12:47 | 55.62657 | 12.61439 | 992 ft | 83 kts | 326° |
| 2026-04-24 12:48 | 55.63145 | 12.60850 | 1059 ft | 90 kts | 327° |
| 2026-04-24 12:48 | 55.63647 | 12.60236 | 1201 ft | 87 kts | 319° |
| 2026-04-24 12:48 | 55.63824 | 12.59150 | 1165 ft | 112 kts | 253° |
| 2026-04-24 12:48 | 55.63193 | 12.58278 | 1173 ft | 125 kts | 207° |
| 2026-04-24 12:49 | 55.62356 | 12.57705 | 1113 ft | 132 kts | 205° |
| 2026-04-24 12:49 | 55.61544 | 12.57089 | 1175 ft | 125 kts | 210° |
| 2026-04-24 12:49 | 55.60747 | 12.56444 | 1191 ft | 126 kts | 209° |
| 2026-04-24 12:49 | 55.59974 | 12.55778 | 1120 ft | 120 kts | 215° |
| 2026-04-24 12:50 | 55.59178 | 12.55369 | 981 ft | 122 kts | 171° |
| 2026-04-24 12:50 | 55.58567 | 12.56273 | 869 ft | 114 kts | 121° |
| 2026-04-24 12:50 | 55.58139 | 12.57312 | 806 ft | 102 kts | 121° |
| 2026-04-24 12:50 | 55.57922 | 12.58363 | 637 ft | 85 kts | 52° |
| 2026-04-24 12:51 | 55.58285 | 12.59086 | 509 ft | 79 kts | 33° |
| 2026-04-24 12:51 | 55.58702 | 12.59671 | 348 ft | 72 kts | 33° |
| 2026-04-24 12:51 | 55.59066 | 12.60180 | 197 ft | 63 kts | 33° |
| 2026-04-24 12:51 | 55.59378 | 12.60620 | 60 ft | 53 kts | 28° |
| 2026-04-24 12:52 | 55.59616 | 12.60954 | 15 ft | 34 kts | 40° |
| 2026-04-24 12:52 | 55.59859 | 12.61340 | 14 ft | 63 kts | 38° |
| 2026-04-24 12:52 | 55.60252 | 12.61951 | 15 ft | 83 kts | 39° |
| 2026-04-24 12:52 | 55.60664 | 12.62628 | 186 ft | 75 kts | 40° |
| 2026-04-24 12:53 | 55.61003 | 12.63306 | 335 ft | 73 kts | 38° |
| 2026-04-24 12:53 | 55.61351 | 12.63950 | 467 ft | 72 kts | 34° |
| 2026-04-24 12:53 | 55.61722 | 12.64528 | 607 ft | 69 kts | 19° |
| 2026-04-24 12:53 | 55.62120 | 12.64173 | 664 ft | 78 kts | 300° |
| 2026-04-24 12:54 | 55.62357 | 12.63255 | 715 ft | 83 kts | 298° |
| 2026-04-24 12:54 | 55.62549 | 12.62284 | 882 ft | 78 kts | 290° |
| 2026-04-24 12:54 | 55.62607 | 12.61258 | 858 ft | 101 kts | 277° |
| 2026-04-24 12:54 | 55.62554 | 12.60165 | 1137 ft | 88 kts | 271° |
| 2026-04-24 12:55 | 55.62464 | 12.59002 | 1211 ft | 93 kts | 265° |
| 2026-04-24 12:55 | 55.62124 | 12.57925 | 1104 ft | 125 kts | 217° |
| 2026-04-24 12:55 | 55.61279 | 12.57288 | 988 ft | 135 kts | 204° |
| 2026-04-24 12:55 | 55.60414 | 12.56663 | 903 ft | 129 kts | 209° |
| 2026-04-24 12:56 | 55.59647 | 12.56005 | 803 ft | 116 kts | 212° |
| 2026-04-24 12:56 | 55.58935 | 12.55525 | 775 ft | 102 kts | 178° |
| 2026-04-24 12:56 | 55.58411 | 12.56292 | 659 ft | 94 kts | 125° |
| 2026-04-24 12:56 | 55.58000 | 12.57144 | 586 ft | 89 kts | 125° |
| 2026-04-24 12:57 | 55.57766 | 12.58052 | 506 ft | 68 kts | 65° |
| 2026-04-24 12:57 | 55.58010 | 12.58611 | 439 ft | 56 kts | 32° |
| 2026-04-24 12:57 | 55.58297 | 12.59052 | 380 ft | 53 kts | 31° |
| 2026-04-24 12:57 | 55.58578 | 12.59464 | 304 ft | 52 kts | 26° |
| 2026-04-24 12:58 | 55.58873 | 12.59860 | 199 ft | 55 kts | 28° |
| 2026-04-24 12:58 | 55.59177 | 12.60304 | 96 ft | 56 kts | 31° |
| 2026-04-24 12:58 | 55.59455 | 12.60724 | 26 ft | 46 kts | 32° |
| 2026-04-24 12:58 | 55.59694 | 12.61074 | 14 ft | 55 kts | 41° |
| 2026-04-24 12:59 | 55.60057 | 12.61643 | 29 ft | 78 kts | 34° |
| 2026-04-24 12:59 | 55.60438 | 12.62251 | 182 ft | 73 kts | 34° |
| 2026-04-24 12:59 | 55.60822 | 12.62856 | 292 ft | 75 kts | 33° |
| 2026-04-24 12:59 | 55.61227 | 12.63472 | 396 ft | 76 kts | 33° |
| 2026-04-24 13:00 | 55.61619 | 12.64050 | 556 ft | 73 kts | 29° |
| 2026-04-24 13:00 | 55.62038 | 12.64621 | 635 ft | 82 kts | 26° |
| 2026-04-24 13:00 | 55.62513 | 12.64435 | 747 ft | 86 kts | 306° |
| 2026-04-24 13:00 | 55.62810 | 12.63462 | 848 ft | 89 kts | 304° |
| 2026-04-24 13:01 | 55.63128 | 12.62507 | 967 ft | 89 kts | 306° |
| 2026-04-24 13:01 | 55.63472 | 12.61556 | 1044 ft | 93 kts | 307° |
| 2026-04-24 13:01 | 55.63804 | 12.60568 | 1150 ft | 92 kts | 302° |
| 2026-04-24 13:01 | 55.64098 | 12.59393 | 999 ft | 113 kts | 284° |
| 2026-04-24 13:02 | 55.63782 | 12.58126 | 1017 ft | 126 kts | 226° |
| 2026-04-24 13:02 | 55.63114 | 12.57193 | 1129 ft | 118 kts | 223° |
| 2026-04-24 13:02 | 55.62429 | 12.56312 | 1085 ft | 126 kts | 219° |
| 2026-04-24 13:02 | 55.61666 | 12.55480 | 1075 ft | 128 kts | 216° |
| 2026-04-24 13:03 | 55.60886 | 12.54659 | 957 ft | 132 kts | 207° |
| 2026-04-24 13:03 | 55.59980 | 12.54669 | 841 ft | 136 kts | 156° |
| 2026-04-24 13:03 | 55.59306 | 12.55751 | 794 ft | 124 kts | 122° |
| 2026-04-24 13:03 | 55.58812 | 12.56969 | 667 ft | 116 kts | 123° |
| 2026-04-24 13:04 | 55.58363 | 12.57923 | 612 ft | 98 kts | 122° |
| 2026-04-24 13:04 | 55.58260 | 12.58941 | 447 ft | 79 kts | 52° |
| 2026-04-24 13:04 | 55.58640 | 12.59538 | 299 ft | 67 kts | 32° |
| 2026-04-24 13:04 | 55.58963 | 12.60013 | 181 ft | 55 kts | 33° |
| 2026-04-24 13:05 | 55.59249 | 12.60412 | 51 ft | 49 kts | 29° |
| 2026-04-24 13:05 | 55.59485 | 12.60755 | 15 ft | 39 kts | 37° |
| 2026-04-24 13:05 | 55.59705 | 12.61101 | 14 ft | 53 kts | 40° |
| 2026-04-24 13:05 | 55.60063 | 12.61656 | 14 ft | 79 kts | 38° |
| 2026-04-24 13:06 | 55.60508 | 12.62346 | 43 ft | 87 kts | 36° |
| 2026-04-24 13:06 | 55.60952 | 12.63028 | 140 ft | 83 kts | 34° |
| 2026-04-24 13:06 | 55.61371 | 12.63681 | 267 ft | 80 kts | 37° |
| 2026-04-24 13:06 | 55.61775 | 12.64340 | 403 ft | 76 kts | 33° |
| 2026-04-24 13:07 | 55.62181 | 12.64964 | 505 ft | 80 kts | 24° |
| 2026-04-24 13:07 | 55.62690 | 12.64662 | 513 ft | 97 kts | 310° |
| 2026-04-24 13:07 | 55.62964 | 12.63560 | 609 ft | 98 kts | 297° |
| 2026-04-24 13:07 | 55.63190 | 12.62371 | 699 ft | 99 kts | 291° |
| 2026-04-24 13:08 | 55.63374 | 12.61227 | 822 ft | 98 kts | 291° |
| 2026-04-24 13:08 | 55.63485 | 12.59994 | 854 ft | 108 kts | 270° |
| 2026-04-24 13:08 | 55.63073 | 12.58815 | 860 ft | 122 kts | 223° |
| 2026-04-24 13:09 | 55.61628 | 12.57273 | 988 ft | 122 kts | 213° |
| 2026-04-24 13:09 | 55.60874 | 12.56536 | 995 ft | 126 kts | 214° |
| 2026-04-24 13:09 | 55.60127 | 12.55723 | 962 ft | 122 kts | 219° |
| 2026-04-24 13:09 | 55.59368 | 12.55141 | 885 ft | 119 kts | 187° |
| 2026-04-24 13:10 | 55.58677 | 12.55554 | 830 ft | 103 kts | 133° |
| 2026-04-24 13:10 | 55.58260 | 12.56522 | 716 ft | 97 kts | 120° |
| 2026-04-24 13:10 | 55.57873 | 12.57486 | 572 ft | 93 kts | 108° |
| 2026-04-24 13:10 | 55.57954 | 12.58432 | 483 ft | 69 kts | 41° |
| 2026-04-24 13:11 | 55.58264 | 12.58985 | 409 ft | 60 kts | 34° |
| 2026-04-24 13:11 | 55.58570 | 12.59433 | 305 ft | 56 kts | 36° |
| 2026-04-24 13:11 | 55.58862 | 12.59864 | 207 ft | 53 kts | 33° |
| 2026-04-24 13:11 | 55.59153 | 12.60279 | 112 ft | 54 kts | 32° |
| 2026-04-24 13:12 | 55.59447 | 12.60711 | 36 ft | 54 kts | 32° |
| 2026-04-24 13:12 | 55.59721 | 12.61122 | 16 ft | 51 kts | 34° |
| 2026-04-24 13:12 | 55.59983 | 12.61521 | 14 ft | 44 kts | 39° |
| 2026-04-24 13:12 | 55.60251 | 12.61949 | 15 ft | 66 kts | 39° |
| 2026-04-24 13:13 | 55.60644 | 12.62550 | 64 ft | 78 kts | 34° |
| 2026-04-24 13:13 | 55.61034 | 12.63141 | 216 ft | 78 kts | 33° |
| 2026-04-24 13:13 | 55.61479 | 12.63782 | 316 ft | 85 kts | 32° |
| 2026-04-24 13:13 | 55.61972 | 12.64410 | 409 ft | 89 kts | 22° |
| 2026-04-24 13:14 | 55.62515 | 12.64224 | 531 ft | 93 kts | 309° |
| 2026-04-24 13:14 | 55.62812 | 12.63103 | 604 ft | 96 kts | 298° |
| 2026-04-24 13:14 | 55.63040 | 12.62068 | 816 ft | 88 kts | 296° |
| 2026-04-24 13:14 | 55.63140 | 12.61010 | 966 ft | 96 kts | 260° |
| 2026-04-24 13:15 | 55.62631 | 12.60087 | 992 ft | 115 kts | 216° |
| 2026-04-24 13:15 | 55.61925 | 12.59374 | 1038 ft | 118 kts | 214° |
| 2026-04-24 13:15 | 55.61202 | 12.58605 | 993 ft | 128 kts | 217° |
| 2026-04-24 13:15 | 55.60452 | 12.57717 | 951 ft | 128 kts | 220° |
| 2026-04-24 13:16 | 55.59760 | 12.56791 | 911 ft | 120 kts | 225° |
| 2026-04-24 13:16 | 55.59152 | 12.55834 | 851 ft | 115 kts | 226° |
| 2026-04-24 13:16 | 55.58495 | 12.55801 | 906 ft | 104 kts | 134° |
| 2026-04-24 13:16 | 55.58082 | 12.56785 | 834 ft | 104 kts | 122° |
| 2026-04-24 13:17 | 55.57830 | 12.57860 | 740 ft | 88 kts | 73° |
| 2026-04-24 13:17 | 55.58130 | 12.58770 | 527 ft | 86 kts | 39° |
| 2026-04-24 13:17 | 55.58567 | 12.59439 | 322 ft | 81 kts | 34° |
| 2026-04-24 13:17 | 55.58989 | 12.60018 | 169 ft | 70 kts | 37° |
| 2026-04-24 13:18 | 55.59318 | 12.60510 | 61 ft | 56 kts | 34° |
| 2026-04-24 13:18 | 55.59579 | 12.60901 | 15 ft | 41 kts | 42° |
| 2026-04-24 13:18 | 55.59825 | 12.61284 | 14 ft | 62 kts | 40° |
| 2026-04-24 13:18 | 55.60207 | 12.61888 | 29 ft | 81 kts | 34° |
| 2026-04-24 13:19 | 55.60618 | 12.62505 | 188 ft | 75 kts | 34° |
| 2026-04-24 13:19 | 55.61011 | 12.63135 | 288 ft | 77 kts | 35° |
| 2026-04-24 13:19 | 55.61390 | 12.63787 | 438 ft | 74 kts | 37° |
| 2026-04-24 13:19 | 55.61754 | 12.64445 | 535 ft | 77 kts | 35° |
| 2026-04-24 13:20 | 55.62150 | 12.65099 | 651 ft | 77 kts | 33° |
| 2026-04-24 13:20 | 55.62565 | 12.65695 | 765 ft | 76 kts | 26° |
| 2026-04-24 13:20 | 55.63005 | 12.66119 | 924 ft | 70 kts | 11° |
| 2026-04-24 13:20 | 55.63401 | 12.65646 | 840 ft | 92 kts | 302° |
| 2026-04-24 13:21 | 55.63666 | 12.64669 | 957 ft | 85 kts | 299° |
| 2026-04-24 13:21 | 55.63913 | 12.63707 | 1015 ft | 86 kts | 301° |
| 2026-04-24 13:21 | 55.64197 | 12.62752 | 1014 ft | 90 kts | 304° |
| 2026-04-24 13:21 | 55.64522 | 12.61729 | 928 ft | 99 kts | 302° |
| 2026-04-24 13:22 | 55.64743 | 12.60629 | 778 ft | 100 kts | 271° |
| 2026-04-24 13:22 | 55.64298 | 12.59673 | 635 ft | 103 kts | 216° |
| 2026-04-24 13:22 | 55.63632 | 12.59777 | 494 ft | 102 kts | 132° |
| 2026-04-24 13:22 | 55.63316 | 12.60769 | 448 ft | 93 kts | 103° |
| 2026-04-24 13:23 | 55.63039 | 12.61866 | 341 ft | 106 kts | 106° |
| 2026-04-24 13:23 | 55.62693 | 12.63094 | 134 ft | 112 kts | 112° |
| 2026-04-24 13:23 | 55.62294 | 12.64226 | 47 ft | 105 kts | 117° |
| 2026-04-24 13:23 | 55.61904 | 12.65289 | 40 ft | 102 kts | 113° |
| 2026-04-24 13:24 | 55.61516 | 12.66324 | 133 ft | 97 kts | 115° |
| 2026-04-24 13:24 | 55.61140 | 12.67268 | 340 ft | 88 kts | 127° |
| 2026-04-24 13:24 | 55.60539 | 12.67420 | 433 ft | 95 kts | 209° |
| 2026-04-24 13:24 | 55.59989 | 12.66829 | 578 ft | 91 kts | 226° |
| 2026-04-24 13:25 | 55.59488 | 12.66069 | 646 ft | 96 kts | 229° |
| 2026-04-24 13:25 | 55.59013 | 12.65176 | 683 ft | 101 kts | 232° |
| 2026-04-24 13:25 | 55.58813 | 12.64169 | 707 ft | 85 kts | 298° |
| 2026-04-24 13:25 | 55.59206 | 12.63355 | 604 ft | 90 kts | 320° |
| 2026-04-24 13:26 | 55.59643 | 12.62712 | 532 ft | 71 kts | 338° |
| 2026-04-24 13:26 | 55.60052 | 12.62968 | 376 ft | 70 kts | 29° |
| 2026-04-24 13:26 | 55.60439 | 12.63521 | 108 ft | 69 kts | 37° |
| 2026-04-24 13:26 | 55.60758 | 12.64005 | 23 ft | 51 kts | 35° |
| 2026-04-24 13:27 | 55.60991 | 12.64354 | 19 ft | 39 kts | 34° |
| 2026-04-24 13:27 | 55.61169 | 12.64631 | 19 ft | 27 kts | 38° |
| 2026-04-24 13:27 | 55.61152 | 12.64757 | 19 ft | 15 kts | 166° |
| 2026-04-24 13:27 | 55.61046 | 12.64790 | 21 ft | 11 kts | 153° |
| 2026-04-24 13:28 | 55.61019 | 12.64909 | 21 ft | 11 kts | 90° |
| 2026-04-24 13:28 | 55.61015 | 12.65058 | 21 ft | 14 kts | 87° |
| 2026-04-24 13:28 | 55.61011 | 12.65243 | 21 ft | 15 kts | 91° |
| 2026-04-24 13:28 | 55.61005 | 12.65444 | 20 ft | 8 kts | 87° |
| 2026-04-24 13:29 | 55.61055 | 12.65503 | 19 ft | 7 kts | 3° |
| 2026-04-24 13:29 | 55.61080 | 12.65452 | 19 ft | 0 kts | 251° |